Tiempo atmosférico en la estación meteorológica de Guadalajara, Guadalajara (721 m.)



Fecha
DESCASC
Temp. máxima en grados centígrados (hora)
DESCASC
Temp. mínima en grados centígrados (hora)
DESCASC
Temp. media en grados centígrados
DESCASC
Racha de viento máxima en m/sg (hora)
DESCASC
Velocidad máxima media en intervalos de 10 minutos(hora)
DESCASC
Precipitaciones diarias en mm
DESCASC
Precipitaciones de 00:00 a 06:00 en mm
DESCASC
Precipitaciones de 06:00 a 12:00 en mm
DESCASC
Precipitaciones de 12:00 a 18:00 en mm
DESCASC
Precipitaciones de 18:00 a 24:00 en mm
DESCASC

Gráficas

Temp. máximas Temp. mínimas Temp. medias Precipitaciones Rachas de viento máximas Velocidades máximas media en intervalos de 10 minutos

Datos horarios

Fecha y hora oficial Temperatura (ºC) Velocidad del viento (km/h) Dirección del viento Racha (km/h) Dirección de racha Precipitación (mm) Presión (hPa) Tendencia (hPa) Humedad (%)
2019-08-17 23:00:00 28.3 7 Sur 11 Sudoeste 0 930.4 0.6 22
2019-08-17 22:00:00 29.9 7 Sur 12 Sudoeste 0 930.2 0 21
2019-08-17 21:00:00 33.1 7 Sudoeste 30 Oeste 0 929.7 -0.9 18
2019-08-17 20:00:00 35 11 Oeste 32 Sudoeste 0 929.8 -1.3 16
2019-08-17 19:00:00 35.7 19 Oeste 36 Oeste 0 930.2 -1.4 16
2019-08-17 18:00:00 36.1 13 Oeste 39 Oeste 0 930.6 -1.6 15
2019-08-17 17:00:00 35.6 21 Sudoeste 36 Sudoeste 0 931.1 -1.6 15
2019-08-17 16:00:00 35.6 15 Oeste 33 Oeste 0 931.6 -1.7 16
2019-08-17 15:00:00 34.9 15 Oeste 37 Oeste 0 932.2 -1.5 17
2019-08-17 14:00:00 34.3 16 Sudoeste 32 Sudoeste 0 932.7 -1.2 18
2019-08-17 13:00:00 33.4 8 Oeste 19 Sudoeste 0 933.3 -0.5 22
2019-08-17 12:00:00 31.1 6 Noroeste 11 Noroeste 0 933.7 -0.1 29
2019-08-17 11:00:00 28.4 5 Noroeste 16 Sudoeste 0 933.9 0.3 35
2019-08-17 10:00:00 24.7 5 Nordeste 10 Este 0 933.8 0.4 40
2019-08-17 09:00:00 23.3 4 Norte 9 Norte 0 933.8 1 41
2019-08-17 08:00:00 20 3 Sudeste 8 Sudeste 0 933.6 0.6 46
2019-08-17 07:00:00 21 2 Sudoeste 15 Este 0 933.4 0.5 44
2019-08-17 06:00:00 21.4 3 Nordeste 12 Este 0 932.8 0 40
2019-08-17 05:00:00 23 4 Norte 12 Norte 0 933 0.1 36
2019-08-17 04:00:00 23.5 5 Nordeste 13 Nordeste 0 932.9 0.1 35
2019-08-17 03:00:00 23.5 6 Nordeste 9 Sudoeste 0 932.8 0.2 35
2019-08-17 02:00:00 24 5 Sudoeste 8 Este 0 932.9 0.4 34
2019-08-17 01:00:00 25.7 3 Noroeste 9 Sur 0 932.8 0.6 30
2019-08-17 00:00:00 27.6 7 Sur 17 Norte 0 932.6 0.8 26
2019-08-16 23:00:00 28.9 8 Sur 14 Sur 0 932.5 0.8 24
2019-08-16 22:00:00 29.6 8 Sur 11 Sur 0 932.2 0.4 23
2019-08-16 21:00:00 32.8 8 Sudoeste 19 Oeste 0 931.8 -0.3 18
2019-08-16 20:00:00 34.4 6 Sudoeste 23 Sudoeste 0 931.7 -0.9 19
2019-08-16 19:00:00 34.9 12 Oeste 31 Oeste 0 931.8 -1.3 19
2019-08-16 18:00:00 35.4 13 Sudoeste 27 Oeste 0 932.1 -1.5 18
2019-08-16 17:00:00 35 9 Sudoeste 29 Oeste 0 932.6 -1.6 19
2019-08-16 16:00:00 34.7 12 Oeste 28 Oeste 0 933.1 -1.6 20
2019-08-16 15:00:00 33.9 12 Oeste 26 Sudoeste 0 933.6 -1.7 24
2019-08-16 14:00:00 32.4 6 Norte 12 Noroeste 0 934.2 -1.2 31
2019-08-16 13:00:00 30.5 5 Oeste 12 Oeste 0 934.7 -0.9 35
2019-08-16 12:00:00 28.7 5 Oeste 14 Noroeste 0 935.3 -0.2 39
2019-08-16 11:00:00 27 3 Oeste 8 Norte 0 935.4 0.1 43
2019-08-16 10:00:00 23.3 5 Norte 11 Norte 0 935.6 0.8 49
2019-08-16 09:00:00 22 4 Norte 6 Nordeste 0 935.5 0.6 53
2019-08-16 08:00:00 19.1 4 Este 8 Nordeste 0 935.3 0.3 59
2019-08-16 07:00:00 19.2 4 Nordeste 13 Nordeste 0 934.8 -0.3 59
2019-08-16 06:00:00 19.8 5 Este 9 Norte 0 934.9 -0.3 55
2019-08-16 05:00:00 21.6 5 Nordeste 17 Nordeste 0 935 -0.5 51
2019-08-16 04:00:00 22 9 Nordeste 25 Nordeste 0 935.1 -0.5 49
2019-08-16 03:00:00 22.6 13 Norte 25 Nordeste 0 935.2 -0.1 47
2019-08-16 02:00:00 23.2 9 Nordeste 22 Nordeste 0 935.5 0.7 45
2019-08-16 01:00:00 24 9 Nordeste 27 Nordeste 0 935.6 1.8 43
2019-08-16 00:00:00 25.3 13 Nordeste 35 Este 0 935.3 2 40
2019-08-15 23:00:00 28.4 19 Este 32 Este 0 934.8 1.7 33
2019-08-15 22:00:00 31 6 Nordeste 18 Nordeste 0 933.8 0.6 24
2019-08-15 21:00:00 32.4 6 Norte 13 Noroeste 0 933.3 -0.1 23
2019-08-15 20:00:00 34.1 7 Sudoeste 14 Sudoeste 0 933.1 -0.7 20
2019-08-15 19:00:00 34.5 7 Sudoeste 16 Sudoeste 0 933.2 -1.2 20
2019-08-15 18:00:00 35.1 6 Oeste 15 Oeste 0 933.4 -1.4 19
2019-08-15 17:00:00 34.6 7 Oeste 22 Sudoeste 0 933.8 -1.5 20
2019-08-15 16:00:00 33.7 7 Nordeste 22 Noroeste 0 934.4 -1.3 21
2019-08-15 15:00:00 32.9 6 Noroeste 19 Norte 0 934.8 -1.5 22
2019-08-15 14:00:00 32.7 5 Sudoeste 14 Oeste 0 935.3 -1.2 22
2019-08-15 13:00:00 31.5 3 Sudoeste 9 Este 0 935.7 -0.7 27
2019-08-15 12:00:00 29.4 5 Nordeste 13 Norte 0 936.3 -0.2 24
2019-08-15 11:00:00 26.2 4 Nordeste 10 Norte 0 936.5 0.5 31
2019-08-15 10:00:00 23.2 5 Norte 8 Norte 0 936.4 1 35
2019-08-15 09:00:00 19.8 3 Noroeste 9 Noroeste 0 936.5 1.5 40
2019-08-15 08:00:00 17 2 Nordeste 9 Este 0 936 0.9 44
2019-08-15 07:00:00 16.9 4 Este 9 Este 0 935.4 0.2 42
2019-08-15 06:00:00 17.7 5 Este 10 Nordeste 0 935 -0.3 38
2019-08-15 05:00:00 18.4 2 Nordeste 8 Este 0 935.1 -0.5 35
2019-08-15 04:00:00 19.4 4 Norte 9 Norte 0 935.2 -0.3 34
2019-08-15 03:00:00 21.2 3 Nordeste 8 Nordeste 0 935.3 -0.4 30
2019-08-15 02:00:00 22.1 9 Nordeste 13 Nordeste 0 935.6 0.2 28
2019-08-15 01:00:00 22.3 2 Este 6 Este 0 935.5 0.7 29
2019-08-15 00:00:00 23.9 4 Norte 10 Nordeste 0 935.7 1.4 27
2019-08-14 23:00:00 25.1 3 Noroeste 10 Sur 0 935.4 1.2 25
2019-08-14 22:00:00 27 6 Sur 14 Sudoeste 0 934.8 0.6 24
2019-08-14 21:00:00 30.4 6 Sudoeste 14 Sur 0 934.3 -0.3 19
2019-08-14 20:00:00 32.3 6 Sudoeste 16 Oeste 0 934.2 -0.8 16
2019-08-14 19:00:00 32.8 8 Sudoeste 14 Sudoeste 0 934.2 -1.3 16
2019-08-14 18:00:00 32.7 6 Sudoeste 14 Noroeste 0 934.6 -1.5 16
2019-08-14 17:00:00 32.4 6 Sudoeste 16 Oeste 0 935 -1.5 16
2019-08-14 16:00:00 31.8 5 Norte 17 Norte 0 935.5 -1.7 17
2019-08-14 15:00:00 30.3 6 Este 17 Noroeste 0 936.1 -1.3 18
2019-08-14 14:00:00 29 9 Noroeste 19 Noroeste 0 936.5 -0.9 19
2019-08-14 13:00:00 27.4 5 Noroeste 12 Oeste 0 937.2 -0.3 23
2019-08-14 12:00:00 26.1 5 Oeste 11 Oeste 0 937.4 0.2 32
2019-08-14 11:00:00 23.4 2 Oeste 12 Noroeste 0 937.4 0.4 43
2019-08-14 10:00:00 19.8 5 Norte 9 Norte 0 937.5 0.8 43
2019-08-14 09:00:00 17.9 3 Noroeste 8 Nordeste 0 937.2 0.6 47
2019-08-14 08:00:00 14.4 5 Nordeste 9 Nordeste 0 937 0.3 52
2019-08-14 07:00:00 14.5 3 Norte 8 Nordeste 0 936.7 0 51
2019-08-14 06:00:00 15.3 3 Nordeste 7 Norte 0 936.6 -0.1 48
2019-08-14 05:00:00 15.4 4 Este 7 Nordeste 0 936.7 0 46
2019-08-14 04:00:00 16.6 4 Este 8 Norte 0 936.7 0.4 42
2019-08-14 03:00:00 18.2 3 Norte 17 Nordeste 0 936.7 0.6 38
2019-08-14 02:00:00 19.6 9 Nordeste 25 Este 0 936.7 0.8 35
2019-08-14 01:00:00 20.9 9 Nordeste 22 Este 0 936.3 1.2 25
2019-08-14 00:00:00 21.6 10 Nordeste 21 Este 0 936.1 1.8 21
2019-08-13 23:00:00 22.7 11 Nordeste 18 Este 0 935.9 1.8 21
2019-08-13 22:00:00 24.8 5 Nordeste 12 Nordeste 0 935.1 1 19
2019-08-13 21:00:00 27.4 5 Noroeste 16 Noroeste 0 934.3 0 17
2019-08-13 20:00:00 29.2 5 Oeste 19 Sudoeste 0 934.1 -0.6 17
2019-08-13 19:00:00 29.6 8 Sudoeste 19 Sudoeste 0 934.1 -1 18
2019-08-13 18:00:00 29.3 6 Sudoeste 18 Sudoeste 0 934.3 -1.3 18
2019-08-13 17:00:00 28.7 6 Noroeste 16 Noroeste 0 934.7 -1.4 20
2019-08-13 16:00:00 28.6 7 Oeste 18 Oeste 0 935.1 -1.6 22
2019-08-13 15:00:00 27 6 Noroeste 19 Noroeste 0 935.6 -1.3 25
2019-08-13 14:00:00 26.5 6 Oeste 14 Oeste 0 936.1 -0.9 34
2019-08-13 13:00:00 24.1 6 Norte 15 Noroeste 0 936.7 -0.5 40
2019-08-13 12:00:00 22.5 6 Noroeste 18 Noroeste 0 936.9 -0.3 35
2019-08-13 11:00:00 20.3 7 Norte 17 Norte 0 937 0.2 40
2019-08-13 10:00:00 17.1 8 Norte 18 Norte 0 937.2 0.8 48
2019-08-13 09:00:00 14.3 8 Nordeste 18 Norte 0 937.2 0.5 56
2019-08-13 08:00:00 13.6 8 Norte 19 Norte 0 936.8 0.1 57
2019-08-13 07:00:00 14.3 9 Nordeste 25 Nordeste 0 936.4 -0.4 55
2019-08-13 06:00:00 14.8 12 Nordeste 24 Nordeste 0 936.7 -0.6 56
2019-08-13 05:00:00 15.3 8 Nordeste 22 Nordeste 0 936.7 -0.7 55
2019-08-13 04:00:00 16 11 Nordeste 24 Nordeste 0 936.8 0 52
2019-08-13 03:00:00 16.5 13 Nordeste 24 Nordeste 0 937.3 0.6 50
2019-08-13 02:00:00 17.2 9 Nordeste 34 Nordeste 0 937.4 1.5 48
2019-08-13 01:00:00 17.6 21 Este 38 Este 0 936.8 1.6 46
2019-08-13 00:00:00 18.7 16 Nordeste 32 Nordeste 0 936.7 2.4 38
2019-08-12 23:00:00 20.8 18 Este 33 Este 0 935.9 2.1 32
2019-08-12 22:00:00 22.7 9 Nordeste 19 Nordeste 0 935.2 1.4 23
2019-08-12 21:00:00 24.7 6 Nordeste 22 Nordeste 0 934.3 0.1 19
2019-08-12 20:00:00 26 10 Nordeste 27 Nordeste 0 933.8 -0.6 18
2019-08-12 19:00:00 26.8 8 Nordeste 23 Nordeste 0 933.8 -1.2 17
2019-08-12 18:00:00 26.7 10 Nordeste 24 Nordeste 0 934.2 -0.9 18
2019-08-12 17:00:00 26.5 12 Nordeste 29 Nordeste 0 934.4 -1.1 18
2019-08-12 16:00:00 25.7 12 Nordeste 34 Nordeste 0 935 -0.7 21
2019-08-12 15:00:00 25.2 13 Nordeste 27 Este 0 935.1 -1 21
2019-08-12 14:00:00 24.6 14 Nordeste 28 Norte 0 935.5 -0.4 23
2019-08-12 13:00:00 23.3 12 Nordeste 31 Norte 0 935.7 0 23
2019-08-12 12:00:00 22 12 Norte 36 Norte 0 936.1 1 34
2019-08-12 11:00:00 20.7 9 Nordeste 21 Nordeste 0 935.9 1.3 39
2019-08-12 10:00:00 18.1 6 Norte 19 Nordeste 0 935.7 1.6 55
2019-08-12 09:00:00 16.5 8 Nordeste 19 Nordeste 0 935.1 1.2 60
2019-08-12 08:00:00 14.3 8 Nordeste 16 Nordeste 0 934.6 0.8 68
2019-08-12 07:00:00 14.5 5 Nordeste 10 Este 0 934.1 0.3 66
2019-08-12 06:00:00 14.9 7 Nordeste 14 Nordeste 0 933.9 0 57
2019-08-12 05:00:00 15.4 5 Nordeste 10 Nordeste 0 933.8 -0.1 52
2019-08-12 04:00:00 16.3 3 Nordeste 8 Nordeste 0 933.8 -0.1 39
2019-08-12 03:00:00 16.9 3 Sudeste 6 Este 0 933.9 0.2 39
2019-08-12 02:00:00 18.4 4 Sudoeste 9 Norte 0 933.9 0.6 36
2019-08-12 01:00:00 20.8 5 Este 15 Norte 0 933.9 1.3 32
2019-08-12 00:00:00 22.3 10 Norte 22 Norte 0 933.7 2.1 28
2019-08-11 23:00:00 23.3 9 Norte 19 Nordeste 0 933.3 1.9 28
2019-08-11 22:00:00 24.5 7 Norte 20 Sudoeste 0 932.6 1.2 28
2019-08-11 21:00:00 25.6 12 Sudoeste 26 Oeste 0 931.6 0.1 25
2019-08-11 20:00:00 26.8 14 Sudoeste 33 Oeste 0 931.4 -0.2 22
2019-08-11 19:00:00 28.5 16 Oeste 35 Oeste 0 931.4 -0.6 18
2019-08-11 18:00:00 28.6 20 Oeste 36 Oeste 0 931.5 -0.7 14
2019-08-11 17:00:00 28.9 16 Sudoeste 45 Sudoeste 0 931.6 -0.9 16
2019-08-11 16:00:00 28.5 23 Sudoeste 42 Sudoeste 0 932 -0.8 16
2019-08-11 15:00:00 28.3 18 Sudoeste 40 Sudoeste 0 932.2 -1 22
2019-08-11 14:00:00 28.5 16 Oeste 38 Oeste 0 932.5 -0.6 21
2019-08-11 13:00:00 27.4 19 Oeste 34 Sudoeste 0 932.8 -0.1 26
2019-08-11 12:00:00 26.4 16 Sudoeste 35 Sudoeste 0 933.2 0.5 29
2019-08-11 11:00:00 25.4 5 Noroeste 14 Sur 0 933.1 1.2 30
2019-08-11 10:00:00 23.9 4 Sur 14 Sur 0 932.9 0.1 32
2019-08-11 09:00:00 20.9 7 Sudeste 14 Sudeste 0 932.7 0.7 36
2019-08-11 08:00:00 20.1 9 Este 15 Este 0 931.9 0.1 43
2019-08-11 07:00:00 19.7 4 Sudoeste 13 Oeste 0 932.8 1.2 37
2019-08-11 06:00:00 19.9 8 Oeste 13 Oeste 0 932 0.4 36
2019-08-11 05:00:00 20.4 4 Sur 6 Sur 0 931.8 -0.5 34
2019-08-11 04:00:00 21.4 3 Sudoeste 10 Sur 0 931.6 -1 34
2019-08-11 03:00:00 22 6 Sur 12 Sur 0 931.6 -1.2 31
2019-08-11 02:00:00 21.5 4 Sudoeste 10 Sur 0 932.3 -0.8 32
2019-08-11 01:00:00 21.7 7 Sur 10 Sur 0 932.6 -0.2 30
2019-08-11 00:00:00 22.3 6 Sur 8 Sur 0 932.8 0.2 30
2019-08-10 23:00:00 24.2 2 Sur 5 Sur 0 933.1 0.6 28
2019-08-10 22:00:00 27.5 3 Oeste 12 Noroeste 0 932.8 0.1 24
2019-08-10 21:00:00 29.1 6 Noroeste 19 Oeste 0 932.6 -0.7 21
2019-08-10 20:00:00 30.6 12 Oeste 25 Sudoeste 0 932.5 -1.5 24
2019-08-10 19:00:00 30.8 10 Oeste 31 Oeste 0 932.7 -1.7 22
2019-08-10 18:00:00 31.2 13 Sudoeste 34 Sudoeste 0 933.3 -1.4 20
2019-08-10 17:00:00 31.1 17 Oeste 37 Oeste 0 934 -1.2 21
2019-08-10 16:00:00 30.6 19 Oeste 34 Oeste 0 934.4 -1.2 25
2019-08-10 15:00:00 30 13 Oeste 32 Oeste 0 934.7 -1.2 24
2019-08-10 14:00:00 29.2 11 Oeste 25 Sudoeste 0 935.2 -0.9 25
2019-08-10 13:00:00 27.4 9 Sudoeste 22 Sudoeste 0 935.6 -0.9 34
2019-08-10 12:00:00 26 5 Noroeste 14 Sudoeste 0 935.9 -0.1 39
2019-08-10 11:00:00 24.5 7 Oeste 14 Oeste 0 936.1 0.4 48
2019-08-10 10:00:00 22.6 4 Sudeste 11 Este 0 936.5 1.2 58
2019-08-10 09:00:00 20.6 6 Sur 14 Sudeste 0 936 1.1 67
2019-08-10 08:00:00 17.9 6 Sur 13 Sur 0 935.7 1.2 78
2019-08-10 07:00:00 17.8 0 Calma 8 Norte 0 935.3 0.8 78
2019-08-10 06:00:00 19 3 Norte 8 Sur 0 934.9 0.5 72
2019-08-10 05:00:00 19.6 5 Sur 10 Sur 0 934.5 0.2 76
2019-08-10 04:00:00 20.7 3 Sur 17 Sudoeste 0 934.5 0.3 72
2019-08-10 03:00:00 21.8 10 Oeste 16 Oeste 0 934.4 -0.1 69
2019-08-10 02:00:00 22.7 10 Oeste 19 Sur 0 934.3 0 65
2019-08-10 01:00:00 23.4 10 Sudoeste 17 Sudoeste 0 934.2 0.3 61
2019-08-10 00:00:00 24.3 9 Sudoeste 16 Oeste 0 934.5 1.6 58
2019-08-09 23:00:00 25.2 9 Oeste 27 Oeste 0 934.3 1.9 58
2019-08-09 22:00:00 26.4 11 Oeste 37 Oeste 0 933.9 2.1 54
2019-08-09 21:00:00 28.6 13 Oeste 46 Oeste 0 932.9 1 45
2019-08-09 20:00:00 30 22 Oeste 48 Sudoeste 0 932.4 0.7 39
2019-08-09 19:00:00 30.6 26 Sudoeste 53 Sudoeste 0 931.8 -0.5 38
2019-08-09 18:00:00 31 28 Oeste 54 Oeste 0 931.9 -0.9 38
2019-08-09 17:00:00 31 28 Sudoeste 51 Sudoeste 0 931.7 -1.7 38
2019-08-09 16:00:00 30.4 27 Sudoeste 51 Oeste 0 932.3 -1.2 40
2019-08-09 15:00:00 30.3 23 Sudoeste 49 Sudoeste 0 932.8 -0.3 41
2019-08-09 14:00:00 29 26 Sudoeste 56 Sudoeste 0 933.4 0.1 45
2019-08-09 13:00:00 28.2 22 Sudoeste 44 Sudoeste 0 933.5 0.5 47
2019-08-09 12:00:00 26.8 28 Sudoeste 44 Sudoeste 0 933.1 0.4 48
2019-08-09 11:00:00 25.6 21 Sudoeste 34 Sudoeste 0 933.3 0.9 50
2019-08-09 10:00:00 24.5 19 Sudoeste 39 Oeste 0 933 1 55
2019-08-09 09:00:00 23.8 19 Sudoeste 31 Sudoeste 0 932.7 1 57
2019-08-09 08:00:00 22.2 9 Sudoeste 19 Sudoeste 0 932.4 0.8 60
2019-08-09 07:00:00 22.4 8 Sudoeste 17 Sudoeste 0 932 0.5 59
2019-08-09 06:00:00 23.5 9 Sudoeste 19 Sudoeste 0 931.7 0.6 54
2019-08-09 05:00:00 24.4 10 Sudoeste 17 Sudoeste 0 931.6 0.3 49
2019-08-09 04:00:00 24.8 9 Sudoeste 17 Sudoeste 0 931.5 0.2 44
2019-08-09 03:00:00 24.4 8 Sudoeste 11 Sudoeste 0 931.1 -0.1 43
2019-08-09 02:00:00 24.6 7 Sur 11 Sur 0 931.3 0.3 42
2019-08-09 01:00:00 25.8 6 Sur 17 Sudoeste 0 931.3 1.1 40
2019-08-09 00:00:00 27.6 9 Sudoeste 17 Oeste 0 931.2 1.4 37
2019-08-08 23:00:00 28.2 8 Sudoeste 16 Sudoeste 0 931 1.4 35
2019-08-08 22:00:00 29.6 10 Sudoeste 26 Sudoeste 0 930.2 0.5 32
2019-08-08 21:00:00 31.1 16 Sudoeste 43 Oeste 0 929.8 -0.4 29
2019-08-08 20:00:00 32.6 17 Oeste 33 Sudoeste 0 929.6 -0.9 27
2019-08-08 19:00:00 32.9 20 Oeste 36 Sudoeste 0 929.7 -1.5 27
2019-08-08 18:00:00 32.6 21 Sudoeste 43 Oeste 0 930.2 -1.4 29
2019-08-08 17:00:00 32 15 Sudoeste 34 Oeste 0 930.5 -1.5 31
2019-08-08 16:00:00 31.3 17 Oeste 40 Sudoeste 0 931.2 -1.1 34
2019-08-08 15:00:00 30.8 16 Sudoeste 30 Oeste 0 931.6 -1.1 37
2019-08-08 14:00:00 30.1 9 Oeste 31 Oeste 0 932 -0.7 38
2019-08-08 13:00:00 29 14 Oeste 23 Oeste 0 932.3 -0.7 36
2019-08-08 12:00:00 27.3 10 Oeste 21 Sudoeste 0 932.7 0 37
2019-08-08 11:00:00 25.3 8 Sudoeste 14 Oeste 0 932.7 0.3 44
2019-08-08 10:00:00 22.1 6 Noroeste 9 Noroeste 0 933 0.8 54
2019-08-08 09:00:00 21.1 4 Noroeste 12 Sur 0 932.7 0.8 56
2019-08-08 08:00:00 18.1 3 Sur 9 Sudeste 0 932.4 0.3 69
2019-08-08 07:00:00 18 3 Sudoeste 6 Nordeste 0 932.2 -0.1 67
2019-08-08 06:00:00 19.1 0 Calma 6 Sur 0 931.9 -0.5 63
2019-08-08 05:00:00 19.8 4 Sur 11 Sudoeste 0 932.1 -0.2 60
2019-08-08 04:00:00 20 5 Sudoeste 10 Sur 0 932.3 0 58
2019-08-08 03:00:00 20.7 5 Sur 12 Sudoeste 0 932.4 0 54
2019-08-08 02:00:00 21.4 10 Sudoeste 17 Sudoeste 0 932.3 0.3 52
2019-08-08 01:00:00 22.1 10 Sudoeste 19 Sudoeste 0 932.3 0.9 50
2019-08-08 00:00:00 22.6 8 Sudoeste 17 Sudoeste 0 932.4 1.6 49
2019-08-07 23:00:00 23.6 11 Sudoeste 19 Sudoeste 0 932 1.1 45
2019-08-07 22:00:00 24.8 12 Sudoeste 26 Sudoeste 0 931.4 0.5 42
2019-08-07 21:00:00 26 16 Oeste 32 Sudoeste 0 930.8 0.1 38
2019-08-07 20:00:00 26.6 16 Sudoeste 29 Sudoeste 0 930.9 -0.5 37
2019-08-07 19:00:00 27.2 14 Sudoeste 22 Sudoeste 0 930.9 -1.1 38
2019-08-07 18:00:00 27.4 5 Noroeste 24 Oeste 0 930.7 -1.1 37
2019-08-07 17:00:00 28.3 7 Oeste 29 Sudoeste 0 931.4 -0.3 35
2019-08-07 16:00:00 27 15 Sudoeste 27 Sudoeste 0 932 0.7 40
2019-08-07 15:00:00 27.5 13 Oeste 26 Sudoeste 0 931.8 0.9 39
2019-08-07 14:00:00 26.5 17 Sudoeste 28 Sudoeste 0 931.7 1.2 41
2019-08-07 13:00:00 26.4 15 Sudoeste 26 Sudoeste 0 931.3 1.1 42
2019-08-07 12:00:00 27.3 11 Sudoeste 23 Sudoeste 0 930.9 1.3 40
2019-08-07 11:00:00 25.8 12 Sudoeste 23 Sudoeste 0 930.5 1.4 42
2019-08-07 10:00:00 25.7 9 Sudoeste 23 Sudoeste 0 930.2 1.7 41
2019-08-07 09:00:00 24.6 12 Sudoeste 22 Sudoeste 0 929.6 1.4 42
2019-08-07 08:00:00 23.6 7 Oeste 14 Oeste 0 929.1 0.7 41
2019-08-07 07:00:00 23.9 7 Sur 15 Sudoeste 0 928.5 0.1 37
2019-08-07 06:00:00 24.7 10 Sudoeste 21 Sudoeste 0 928.2 0.1 34
2019-08-07 05:00:00 24.4 10 Sudoeste 16 Sudoeste 0 928.4 -0.2 32
2019-08-07 04:00:00 24.4 3 Sudoeste 12 Sur 0 928.4 -0.2 34
2019-08-07 03:00:00 25.1 6 Sur 10 Sur 0 928.1 -0.7 32
2019-08-07 02:00:00 27.3 4 Oeste 18 Sudoeste 0 928.6 -0.2 27
2019-08-07 01:00:00 27.9 10 Sudoeste 24 Sudoeste 0 928.6 0.5 25
2019-08-07 00:00:00 28.5 14 Sudoeste 27 Oeste 0 928.8 1 25
2019-08-06 23:00:00 28.9 10 Sudoeste 15 Sudoeste 0 928.8 1.1 23
2019-08-06 22:00:00 29.8 8 Sudoeste 14 Sudoeste 0 928.1 0.2 19
2019-08-06 21:00:00 31.7 8 Oeste 27 Oeste 0 927.8 -0.3 17
2019-08-06 20:00:00 32.9 17 Sudoeste 33 Oeste 0 927.7 -1 15
2019-08-06 19:00:00 34.5 17 Oeste 33 Oeste 0 927.9 -1.5 13
2019-08-06 18:00:00 34.7 19 Sudoeste 36 Oeste 0 928.1 -1.9 13
2019-08-06 17:00:00 34.9 19 Sudoeste 37 Oeste 0 928.7 -2.1 12
2019-08-06 16:00:00 34.4 17 Sudoeste 36 Sudoeste 0 929.4 -1.6 12
2019-08-06 15:00:00 33.8 12 Oeste 33 Sudoeste 0 930 -1.4 15
2019-08-06 14:00:00 33 14 Oeste 34 Oeste 0 930.8 -0.8 17
2019-08-06 13:00:00 31.8 14 Sudoeste 33 Oeste 0 931 -0.9 18
2019-08-06 12:00:00 31.1 6 Oeste 15 Oeste 0 931.4 -0.3 21
2019-08-06 11:00:00 28.3 3 Noroeste 9 Norte 0 931.6 0.3 24
2019-08-06 10:00:00 25.3 2 Noroeste 6 Noroeste 0 931.9 1.1 27
2019-08-06 09:00:00 22.2 4 Noroeste 9 Noroeste 0 931.7 1 31
2019-08-06 08:00:00 20.4 5 Sudoeste 16 Sudoeste 0 931.3 0.5 34
2019-08-06 07:00:00 19 4 Nordeste 6 Oeste 0 930.8 -0.1 37
2019-08-06 06:00:00 19.9 2 Norte 6 Este 0 930.7 0.2 31
2019-08-06 05:00:00 20.1 2 Sur 4 Este 0 930.8 0.2 32
2019-08-06 04:00:00 21 3 Este 9 Sudoeste 0 930.9 0.5 29
2019-08-06 03:00:00 22.1 6 Sur 8 Sur 0 930.5 0 27
2019-08-06 02:00:00 24 0 Calma 8 Sur 0 930.6 0.3 28
2019-08-06 01:00:00 25.9 3 Sur 12 Sur 0 930.4 0.5 22
2019-08-06 00:00:00 27.3 8 Sudoeste 14 Oeste 0 930.5 1.1 21
2019-08-05 23:00:00 26.6 6 Sur 9 Sur 0 930.3 0.9 24
2019-08-05 22:00:00 29.7 6 Sur 11 Sudoeste 0 929.9 0.2 22
2019-08-05 21:00:00 32.9 5 Oeste 22 Oeste 0 929.4 -0.6 17
2019-08-05 20:00:00 34.3 13 Oeste 22 Sudoeste 0 929.4 -1 14
2019-08-05 19:00:00 35 15 Oeste 29 Oeste 0 929.7 -1.2 14
2019-08-05 18:00:00 35.5 7 Oeste 32 Oeste 0 930 -1.4 14
2019-08-05 17:00:00 35.1 11 Sudoeste 37 Oeste 0 930.4 -1.5 16
2019-08-05 16:00:00 34.6 9 Oeste 32 Sudoeste 0 930.9 -1.6 17
2019-08-05 15:00:00 33.7 14 Sudoeste 35 Sudoeste 0 931.4 -1.5 18
2019-08-05 14:00:00 33.1 12 Oeste 31 Sudoeste 0 931.9 -1.2 20
2019-08-05 13:00:00 32.3 13 Oeste 27 Oeste 0 932.5 -0.6 20
2019-08-05 12:00:00 29.7 4 Noroeste 8 Noroeste 0 932.9 0 25
2019-08-05 11:00:00 26.6 4 Noroeste 8 Norte 0 933.1 0.3 29
2019-08-05 10:00:00 24.1 4 Norte 9 Noroeste 0 933.1 0.8 33
2019-08-05 09:00:00 23.9 3 Sudoeste 12 Sur 0 932.9 1 32
2019-08-05 08:00:00 19.7 2 Norte 12 Sur 0 932.8 1 35
2019-08-05 07:00:00 21.3 8 Sudoeste 14 Sur 0 932.3 0.3 32
2019-08-05 06:00:00 21.5 4 Sur 12 Sudeste 0 931.9 0.1 32
2019-08-05 05:00:00 21.7 5 Sur 12 Sur 0 931.8 0 32
2019-08-05 04:00:00 21.9 3 Norte 9 Oeste 0 932 0.2 32
2019-08-05 03:00:00 23.2 2 Oeste 10 Sur 0 931.8 0.1 31
2019-08-05 02:00:00 23.8 2 Sudeste 9 Sur 0 931.8 0.1 31
2019-08-05 01:00:00 25.4 8 Sur 11 Sur 0 931.8 0.6 27
2019-08-05 00:00:00 25.8 9 Sur 12 Sur 0 931.7 1.1 22
2019-08-04 23:00:00 26.5 8 Sur 10 Sur 0 931.7 1.5 21
2019-08-04 22:00:00 29.2 7 Sur 17 Oeste 0 931.2 1 20
2019-08-04 21:00:00 32.5 10 Oeste 26 Oeste 0 930.6 0.2 14
2019-08-04 20:00:00 34.1 12 Oeste 30 Oeste 0 930.2 -0.4 14
2019-08-04 19:00:00 35.1 10 Oeste 29 Sudoeste 0 930.2 -1 14
2019-08-04 18:00:00 35.3 13 Sudoeste 32 Oeste 0 930.4 -1.2 13
2019-08-04 17:00:00 35 11 Oeste 37 Oeste 0 930.6 -1.4 16
2019-08-04 16:00:00 34.6 18 Oeste 31 Oeste 0 931.2 -1.4 15
2019-08-04 15:00:00 34.1 11 Oeste 32 Oeste 0 931.6 -1.1 18
2019-08-04 14:00:00 32.8 14 Oeste 34 Oeste 0 932 -0.8 19
2019-08-04 13:00:00 32 10 Oeste 24 Oeste 0 932.6 0 20
2019-08-04 12:00:00 30.5 4 Noroeste 10 Sudoeste 0 932.7 0.3 24
2019-08-04 11:00:00 27.6 3 Noroeste 8 Noroeste 0 932.8 0.7 28
2019-08-04 10:00:00 24.5 4 Noroeste 7 Noroeste 0 932.6 0.9 29
2019-08-04 09:00:00 21.8 0 Calma 6 Noroeste 0 932.4 0.9 30
2019-08-04 08:00:00 19.7 2 Oeste 13 Sur 0 932.1 1 32
2019-08-04 07:00:00 19.2 3 Noroeste 7 Noroeste 0 931.7 0.9 36
2019-08-04 06:00:00 20.4 2 Noroeste 9 Norte 0 931.5 0.8 30
2019-08-04 05:00:00 22.6 5 Sur 12 Sur 0 931.1 0.7 26
2019-08-04 04:00:00 21.5 4 Sudoeste 6 Sudoeste 0 930.8 0.3 29
2019-08-04 03:00:00 23.1 2 Sudoeste 7 Sudoeste 0 930.7 0.1 27
2019-08-04 02:00:00 23.6 4 Sur 12 Sur 0 930.4 -0.1 26
2019-08-04 01:00:00 24.3 9 Sur 12 Sur 0 930.5 0.6 23
2019-08-04 00:00:00 25 8 Sur 11 Sur 0 930.6 1.2 19
2019-08-03 23:00:00 25.9 8 Sur 10 Sur 0 930.5 1.1 19
2019-08-03 22:00:00 29.2 5 Sur 14 Oeste 0 929.9 0.3 16
2019-08-03 21:00:00 32.8 8 Oeste 23 Oeste 0 929.4 -0.7 12
2019-08-03 20:00:00 34.4 12 Oeste 30 Oeste 0 929.4 -1.1 11
2019-08-03 19:00:00 35.1 9 Oeste 29 Oeste 0 929.6 -1.4 11
2019-08-03 18:00:00 35.1 16 Oeste 35 Sudoeste 0 930.1 -1.3 11
2019-08-03 17:00:00 35.1 15 Sudoeste 40 Oeste 0 930.5 -1.3 12
2019-08-03 16:00:00 35.1 13 Oeste 37 Oeste 0 931 -1.3 13
2019-08-03 15:00:00 34.2 10 Sudoeste 29 Oeste 0 931.4 -1.2 17
2019-08-03 14:00:00 33.4 8 Oeste 21 Oeste 0 931.8 -0.9 20
2019-08-03 13:00:00 31.5 6 Noroeste 15 Oeste 0 932.3 -0.5 31
2019-08-03 12:00:00 29 5 Noroeste 12 Noroeste 0 932.6 -0.3 38
2019-08-03 11:00:00 27.4 5 Noroeste 10 Noroeste 0 932.7 0.1 41
2019-08-03 10:00:00 25.4 5 Norte 8 Norte 0 932.8 0.5 44
2019-08-03 09:00:00 23.1 3 Norte 4 Norte 0 932.9 1.2 49
2019-08-03 08:00:00 19.6 2 Nordeste 6 Sur 0 932.6 1 54
2019-08-03 07:00:00 20.2 3 Sur 9 Norte 0 932.3 0.7 49
2019-08-03 06:00:00 22.5 4 Noroeste 12 Noroeste 0 931.7 0 44
2019-08-03 05:00:00 23.2 4 Este 12 Este 0 931.6 -0.1 41
2019-08-03 04:00:00 22.2 5 Norte 8 Nordeste 0 931.6 -0.2 36
2019-08-03 03:00:00 21.8 3 Sudoeste 11 Nordeste 0 931.7 0.4 32
2019-08-03 02:00:00 22 4 Este 9 Este 0 931.7 0.5 29
2019-08-03 01:00:00 24.8 3 Norte 13 Norte 0 931.8 0.9 28
2019-08-03 00:00:00 25.1 4 Sur 9 Sur 0 931.3 0.7 21
2019-08-02 23:00:00 26.9 5 Sur 11 Sur 0 931.2 0.7 19
2019-08-02 22:00:00 29.3 7 Sur 13 Oeste 0 930.9 0.3 18
2019-08-02 21:00:00 32.5 8 Sudoeste 18 Oeste 0 930.6 -0.3 14
2019-08-02 20:00:00 34.3 5 Oeste 19 Sudoeste 0 930.5 -0.7 15
2019-08-02 19:00:00 34.9 8 Sudoeste 22 Oeste 0 930.6 -1 13
2019-08-02 18:00:00 35.3 6 Sur 23 Oeste 0 930.9 -1.1 12
2019-08-02 17:00:00 34.9 10 Oeste 25 Oeste 0 931.2 -1 14
2019-08-02 16:00:00 34 12 Noroeste 19 Noroeste 0 931.6 -1 14
2019-08-02 15:00:00 34.1 8 Oeste 20 Noroeste 0 932 -0.8 13
2019-08-02 14:00:00 33.3 6 Norte 16 Noroeste 0 932.2 -0.8 20
2019-08-02 13:00:00 32.1 4 Noroeste 13 Noroeste 0 932.6 -0.4 23
2019-08-02 12:00:00 29.9 4 Nordeste 10 Norte 0 932.8 0.1 31
2019-08-02 11:00:00 27.2 5 Norte 10 Nordeste 0 933 0.9 42
2019-08-02 10:00:00 25 4 Norte 12 Nordeste 0 933 1.1 48
2019-08-02 09:00:00 22.3 6 Nordeste 14 Nordeste 0 932.7 1 57
2019-08-02 08:00:00 19.7 8 Nordeste 14 Nordeste 0 932.1 0.4 66
2019-08-02 07:00:00 19.7 5 Nordeste 14 Nordeste 0 931.9 0.3 63
2019-08-02 06:00:00 20.4 9 Nordeste 18 Nordeste 0 931.7 0.3 59
2019-08-02 05:00:00 20.8 4 Nordeste 14 Nordeste 0 931.7 0.2 56
2019-08-02 04:00:00 20.9 7 Nordeste 13 Nordeste 0 931.6 0.3 53
2019-08-02 03:00:00 21 5 Este 8 Nordeste 0 931.4 0.5 45
2019-08-02 02:00:00 22.6 2 Este 10 Norte 0 931.5 0.7 33
2019-08-02 01:00:00 23.3 2 Sudeste 6 Sudeste 0 931.3 1.5 25
2019-08-02 00:00:00 25.4 3 Este 11 Noroeste 0 930.9 1.7 22
2019-08-01 23:00:00 27.9 7 Noroeste 15 Sudoeste 0 930.8 1.9 19
2019-08-01 22:00:00 28.7 6 Sur 17 Sudoeste 0 929.8 1 18
2019-08-01 21:00:00 31.2 10 Oeste 25 Sudoeste 0 929.2 0.2 16
2019-08-01 20:00:00 32.6 15 Sudoeste 32 Sudoeste 0 928.9 -0.4 15
2019-08-01 19:00:00 33.1 17 Sudoeste 35 Oeste 0 928.8 -0.9 15
2019-08-01 18:00:00 33.4 14 Oeste 39 Oeste 0 929 -1.1 19
2019-08-01 17:00:00 33.2 16 Oeste 40 Sudoeste 0 929.3 -1 20
2019-08-01 16:00:00 32.6 15 Oeste 35 Oeste 0 929.7 -0.8 23
2019-08-01 15:00:00 31.8 17 Oeste 34 Sudoeste 0 930.1 -0.8 22
2019-08-01 14:00:00 31.1 15 Sudoeste 30 Sudoeste 0 930.3 -0.7 28
2019-08-01 13:00:00 29.8 10 Sudoeste 23 Sudeste 0 930.5 -0.5 36
2019-08-01 12:00:00 27.3 5 Sur 15 Oeste 0 930.9 -0.2 42
2019-08-01 11:00:00 25.9 5 Sudoeste 17 Sur 0 931 0.1 44
2019-08-01 10:00:00 24.5 6 Sudeste 14 Sudeste 0 931 0.5 46
2019-08-01 09:00:00 22.8 10 Sudeste 14 Sudeste 0 931.1 0.8 49
2019-08-01 08:00:00 19.7 8 Sudeste 10 Sudeste 0 930.9 0.5 61
2019-08-01 07:00:00 19.8 4 Sudeste 9 Sudeste 0 930.5 -0.1 61
2019-08-01 06:00:00 21.4 4 Este 10 Sudeste 0 930.3 -0.4 57
2019-08-01 05:00:00 21.3 6 Sudeste 11 Sudeste 0 930.4 -0.3 60
2019-08-01 04:00:00 22.4 3 Sur 15 Sudeste 0 930.6 0.4 56
2019-08-01 03:00:00 23.3 7 Sudeste 19 Sudeste 0 930.7 0.8 55
2019-08-01 02:00:00 24.2 5 Nordeste 17 Sudeste 0 930.7 1 57
2019-08-01 01:00:00 24.8 15 Sudeste 40 Sudeste 0 930.2 0.9 55
2019-08-01 00:00:00 25.8 24 Sudeste 40 Sudeste 0 929.9 0.7 52
2019-07-31 23:00:00 27 22 Sudeste 36 Sudeste 0 929.7 0.5 47
2019-07-31 22:00:00 28.6 17 Sudeste 30 Sudeste 0 929.3 0 41
2019-07-31 21:00:00 30.1 16 Sur 29 Sudeste 0 929.2 -0.4 36
2019-07-31 20:00:00 31.7 17 Sur 32 Sur 0 929.2 -0.9 32
2019-07-31 19:00:00 32.1 14 Sur 31 Sur 0 929.3 -1.6 30
2019-07-31 18:00:00 33.1 17 Sur 33 Sur 0 929.6 -1.7 28
2019-07-31 17:00:00 32.9 16 Sur 32 Sudoeste 0 930.1 -1.9 28
2019-07-31 16:00:00 32.5 13 Sudoeste 33 Sudoeste 0 930.9 -1.7 28
2019-07-31 15:00:00 31.8 11 Sudeste 29 Sur 0 931.3 -1.8 29
2019-07-31 14:00:00 30.4 10 Sudoeste 23 Sudoeste 0 932 -1.3 34
2019-07-31 13:00:00 28.9 10 Sudoeste 23 Sur 0 932.6 -0.8 34
2019-07-31 12:00:00 26.6 5 Este 16 Norte 0 933.1 -0.5 38
2019-07-31 11:00:00 24.1 8 Norte 17 Nordeste 0 933.3 -0.6 39
2019-07-31 10:00:00 21.6 8 Nordeste 21 Nordeste 0 933.4 -0.8 44
2019-07-31 09:00:00 19 10 Nordeste 23 Nordeste 0 933.6 -0.2 50
2019-07-31 08:00:00 16.9 11 Nordeste 21 Nordeste 0 933.9 0.5 54
2019-07-31 07:00:00 16.3 14 Nordeste 23 Nordeste 0 934.2 0.8 55
2019-07-31 06:00:00 16.9 6 Nordeste 21 Nordeste 0 933.8 0.3 53
2019-07-31 05:00:00 16.6 5 Nordeste 19 Nordeste 0 933.4 0 54
2019-07-31 04:00:00 17.6 9 Nordeste 19 Nordeste 0 933.4 0 50
2019-07-31 03:00:00 18.2 9 Norte 30 Norte 0 933.5 0.7 48
2019-07-31 02:00:00 19 14 Nordeste 34 Nordeste 0 933.4 1.1 46
2019-07-31 01:00:00 20.4 18 Nordeste 36 Nordeste 0 933.4 1.9 42
2019-07-31 00:00:00 22.4 12 Nordeste 28 Nordeste 0 932.8 1.7 36
2019-07-30 23:00:00 24.2 7 Nordeste 21 Nordeste 0 932.3 1.3 22
2019-07-30 22:00:00 25.9 4 Este 7 Este 0 931.5 0.5 17
2019-07-30 21:00:00 28.5 4 Norte 15 Noroeste 0 931.1 -0.3 15
2019-07-30 20:00:00 29.9 6 Norte 15 Noroeste 0 931 -0.9 14
2019-07-30 19:00:00 30.5 5 Este 19 Nordeste 0 931 -1.3 15
2019-07-30 18:00:00 30.1 5 Nordeste 20 Norte 0 931.4 -1.3 15
2019-07-30 17:00:00 29.9 6 Norte 18 Nordeste 0 931.9 -1.3 16
2019-07-30 16:00:00 29.4 5 Oeste 23 Oeste 0 932.3 -1.3 19
2019-07-30 15:00:00 28.3 10 Norte 26 Noroeste 0 932.7 -1.1 22
2019-07-30 14:00:00 28 5 Oeste 18 Noroeste 0 933.2 -0.7 24
2019-07-30 13:00:00 26.3 9 Este 22 Este 0 933.6 -0.3 25
2019-07-30 12:00:00 24.5 13 Nordeste 28 Nordeste 0 933.8 0.3 31
2019-07-30 11:00:00 23.1 13 Nordeste 28 Nordeste 0 933.9 1 34
2019-07-30 10:00:00 21.7 15 Nordeste 24 Este 0 933.9 1.3 37
2019-07-30 09:00:00 19.1 10 Nordeste 21 Este 0 933.5 1.1 43
2019-07-30 08:00:00 16.8 7 Nordeste 17 Este 0 932.9 1.1 48
2019-07-30 07:00:00 15.9 11 Nordeste 17 Nordeste 0 932.6 1.1 49
2019-07-30 06:00:00 17.2 6 Nordeste 18 Nordeste 0 932.4 1 42
2019-07-30 05:00:00 17.7 3 Nordeste 12 Nordeste 0 931.8 0.6 37
2019-07-30 04:00:00 17.8 0 Calma 6 Este 0 931.5 0.7 39
2019-07-30 03:00:00 19.1 0 Calma 11 Nordeste 0 931.4 0.9 35
2019-07-30 02:00:00 20.6 2 Sudeste 7 Este 0 931.2 1.2 32
2019-07-30 01:00:00 23.5 4 Nordeste 19 Noroeste 0 930.8 1.9 28
2019-07-30 00:00:00 24.6 6 Norte 16 Nordeste 0 930.5 2.6 25
2019-07-29 23:00:00 25.7 5 Norte 17 Nordeste 0 930 2.4 24
2019-07-29 22:00:00 27.4 8 Norte 30 Oeste 0 928.9 1.4 22
2019-07-29 21:00:00 29.4 16 Sudoeste 33 Sudoeste 0 927.9 0.2 23
2019-07-29 20:00:00 31 17 Sudoeste 33 Sudoeste 0 927.6 -0.2 18
2019-07-29 19:00:00 31.7 19 Sudoeste 43 Oeste 0 927.5 -0.6 15
2019-07-29 18:00:00 32.2 23 Oeste 37 Oeste 0 927.7 -0.7 11
2019-07-29 17:00:00 32.3 19 Sudoeste 33 Sudoeste 0 927.8 -1 15
2019-07-29 16:00:00 31.8 15 Oeste 40 Oeste 0 928.1 -1.1 20
2019-07-29 15:00:00 31 21 Sudoeste 44 Sudoeste 0 928.4 -1.1 23
2019-07-29 14:00:00 30.2 14 Oeste 32 Sudoeste 0 928.8 -0.6 25
2019-07-29 13:00:00 29.5 12 Oeste 31 Sudoeste 0 929.2 -0.3 25
2019-07-29 12:00:00 28.1 12 Sudoeste 19 Sudoeste 0 929.5 0.3 25
2019-07-29 11:00:00 25.8 4 Oeste 9 Noroeste 0 929.4 0.5 28
2019-07-29 10:00:00 21.9 5 Norte 8 Norte 0 929.5 1 33
2019-07-29 09:00:00 20.4 4 Noroeste 8 Noroeste 0 929.2 1 36
2019-07-29 08:00:00 17.5 3 Este 6 Este 0 928.9 0.7 40
2019-07-29 07:00:00 17.2 2 Norte 8 Nordeste 0 928.5 0.4 43
2019-07-29 06:00:00 17.3 0 Calma 6 Nordeste 0 928.2 0.1 43
2019-07-29 05:00:00 18.5 4 Nordeste 8 Norte 0 928.2 0.1 39
2019-07-29 04:00:00 19.1 2 Sur 8 Norte 0 928.1 0 40
2019-07-29 03:00:00 20.7 2 Norte 5 Este 0 928.1 0 39
2019-07-29 02:00:00 21.6 5 Este 7 Este 0 928.1 -0.1 35
2019-07-29 01:00:00 23.3 4 Sudoeste 15 Sur 0 928.1 0.5 29
2019-07-29 00:00:00 24.3 8 Sur 16 Sur 0 928.1 0.9 27
2019-07-28 23:00:00 24.6 9 Sur 14 Sur 0 928.2 1.3 28
2019-07-28 22:00:00 25.9 8 Sur 17 Oeste 0 927.6 0.8 27
2019-07-28 21:00:00 27.7 10 Sudoeste 24 Sudoeste 0 927.2 0.2 26
2019-07-28 20:00:00 28.9 12 Sudoeste 23 Sudoeste 0 926.9 -0.7 24
2019-07-28 19:00:00 29.7 11 Sudoeste 27 Oeste 0 926.8 -1.4 24
2019-07-28 18:00:00 29.5 7 Oeste 21 Oeste 0 927 -1.6 23
2019-07-28 17:00:00 29.1 8 Sudoeste 17 Sudoeste 0 927.6 -1.3 22
2019-07-28 16:00:00 28.2 5 Norte 18 Norte 0 928.2 -1.3 22
2019-07-28 15:00:00 26.7 5 Norte 19 Norte 0 928.6 -1.3 22
2019-07-28 14:00:00 26.1 5 Sur 19 Oeste 0 928.9 -1.3 23
2019-07-28 13:00:00 24.2 5 Noroeste 16 Norte 0 929.5 -0.9 29
2019-07-28 12:00:00 22.8 7 Noroeste 19 Nordeste 0 929.9 -0.5 32
2019-07-28 11:00:00 21 9 Nordeste 22 Este 0 930.2 0 41
2019-07-28 10:00:00 19.5 13 Nordeste 23 Nordeste 0 930.4 0.5 46
2019-07-28 09:00:00 16.9 9 Nordeste 22 Nordeste 0 930.4 0.8 56
2019-07-28 08:00:00 14.6 7 Nordeste 14 Nordeste 0 930.2 0.7 64
2019-07-28 07:00:00 13.8 5 Nordeste 19 Nordeste 0 929.9 0.2 68
2019-07-28 06:00:00 14.3 9 Nordeste 19 Nordeste 0 929.6 0.6 64
2019-07-28 05:00:00 14.9 9 Nordeste 22 Este 0 929.5 0.4 64
2019-07-28 04:00:00 15.8 10 Nordeste 23 Este 0 929.7 0.8 60
2019-07-28 03:00:00 16.5 17 Nordeste 32 Este 0 929 0.3 60
2019-07-28 02:00:00 17.4 13 Nordeste 30 Este 0 929.1 0.9 58
2019-07-28 01:00:00 19.1 10 Este 20 Norte 0 928.9 1.6 57
2019-07-28 00:00:00 20.3 7 Nordeste 21 Este 0 928.7 2.4 53
2019-07-27 23:00:00 21.3 8 Nordeste 24 Nordeste 0 928.2 2.5 48
2019-07-26 12:00:00 27.5 19 Sudoeste 32 Oeste 0 929.5 0.1 38
2019-07-26 11:00:00 26.9 14 Oeste 27 Oeste 0 929.4 0 41
2019-07-26 10:00:00 24.7 12 Sudoeste 21 Oeste 0 929.5 0.4 48
2019-07-26 09:00:00 24.3 8 Sudoeste 18 Sudoeste 0 929.4 0.3 48
2019-07-26 08:00:00 23.7 9 Sur 17 Sur 0 929.4 0 40
2019-07-26 07:00:00 24.6 6 Sudoeste 13 Oeste 0 929.1 -0.4 38
2019-07-26 06:00:00 25 8 Sudoeste 18 Sudoeste 0 929.1 -0.5 36
2019-07-26 05:00:00 25.8 12 Sudoeste 20 Sudoeste 0 929.4 -0.5 31
2019-07-26 04:00:00 26.1 8 Sur 17 Sur 0 929.5 -0.3 29
2019-07-26 03:00:00 25.9 5 Sur 12 Sur 0 929.6 -0.3 30
2019-07-26 02:00:00 27.6 3 Oeste 13 Norte 0 929.9 0 28
2019-07-26 01:00:00 28.1 7 Sur 14 Sudoeste 0 929.8 0.5 25
2019-07-26 00:00:00 28.6 10 Sudoeste 15 Sudoeste 0 929.9 0.9 26
2019-07-25 23:00:00 29.6 10 Sudoeste 18 Sudoeste 0 929.9 1.4 25
2019-07-25 22:00:00 31.4 7 Sudoeste 21 Sudoeste 0 929.3 0.8 22
2019-07-25 21:00:00 33.3 9 Oeste 30 Oeste 0 929 -0.2 20
2019-07-25 20:00:00 34.8 16 Oeste 35 Oeste 0 928.5 -1.3 17
2019-07-25 19:00:00 35.6 15 Oeste 38 Oeste 0 928.5 -1.8 18
2019-07-25 18:00:00 35.6 17 Oeste 36 Sudoeste 0 929.2 -1.7 18
2019-07-25 17:00:00 35.8 14 Sudoeste 41 Oeste 0 929.8 -1.6 18
2019-07-25 16:00:00 35 15 Oeste 42 Sudoeste 0 930.3 -1.6 19
2019-07-25 15:00:00 34.5 17 Oeste 46 Sudoeste 0 930.9 -1.3 20
2019-07-25 14:00:00 34.1 13 Oeste 28 Oeste 0 931.4 -0.9 21
2019-07-25 13:00:00 32.6 15 Sudoeste 25 Oeste 0 931.9 -0.4 25
2019-07-25 12:00:00 31.1 13 Oeste 26 Sudoeste 0 932.2 0 28
2019-07-25 11:00:00 29.3 13 Sudoeste 24 Sudoeste 0 932.3 0.4 31
2019-07-25 10:00:00 28.1 14 Sur 25 Sur 0 932.3 0.6 31
2019-07-25 09:00:00 26.2 3 Norte 11 Noroeste 0 932.2 0.8 32
2019-07-25 08:00:00 23.9 4 Norte 8 Norte 0 931.9 0.5 36
2019-07-25 07:00:00 22.9 6 Este 12 Sudeste 0 931.7 0.8 38
2019-07-25 06:00:00 24.3 4 Sudeste 18 Noroeste 0 931.4 0.6 33
2019-07-25 05:00:00 26.2 8 Nordeste 41 Sudeste 0 931.4 0.2 30
2019-07-25 04:00:00 27 24 Sudeste 39 Sudeste 0 930.9 -0.5 28
2019-07-25 03:00:00 28 24 Sudeste 42 Sudeste 0 930.8 -0.4 27
2019-07-25 02:00:00 28.8 21 Sudeste 37 Sudeste 0 931.2 0.1 26
2019-07-25 01:00:00 29.9 26 Sur 45 Sudeste 0 931.4 1 23
2019-07-25 00:00:00 30.6 24 Sur 39 Sur 0 931.2 1.2 20
2019-07-24 23:00:00 31.6 19 Sur 30 Sur 0 931.1 1.1 19
2019-07-24 22:00:00 32.3 9 Sur 18 Sudeste 0 930.4 0.3 20
2019-07-24 21:00:00 34.7 11 Sur 26 Sur 0 930 -0.6 17
2019-07-24 20:00:00 35.8 11 Sur 30 Sur 0 930 -1.1 16
2019-07-24 19:00:00 36.1 17 Sudoeste 38 Sudoeste 0 930.1 -1.5 16
2019-07-24 18:00:00 37.3 14 Sudoeste 33 Sudoeste 0 930.6 -1.8 15
2019-07-24 17:00:00 37.3 13 Sudoeste 29 Sur 0 931.1 -1.8 15
2019-07-24 16:00:00 37 14 Sur 40 Sur 0 931.6 -1.8 15
2019-07-24 15:00:00 36.8 12 Sudeste 29 Sudeste 0 932.4 -1.6 16
2019-07-24 14:00:00 35.1 13 Sudoeste 31 Sudoeste 0 932.9 -1.4 20
2019-07-24 13:00:00 34.3 11 Sur 26 Sur 0 933.4 -0.9 20
2019-07-24 12:00:00 32.9 12 Sur 26 Sudoeste 0 934 -0.3 21
2019-07-24 11:00:00 31 10 Sudeste 24 Sudeste 0 934.3 0.2 24
2019-07-24 10:00:00 27.7 5 Nordeste 10 Nordeste 0 934.3 0.6 32
2019-07-24 09:00:00 25.1 5 Norte 11 Este 0 934.3 0.8 37
2019-07-24 08:00:00 21.8 3 Este 6 Sur 0 934.1 0.8 45
2019-07-24 07:00:00 22.6 3 Sur 9 Norte 0 933.7 0.4 42
2019-07-24 06:00:00 24 5 Nordeste 11 Este 0 933.5 -0.5 35
2019-07-24 05:00:00 25.3 8 Este 21 Sudeste 0 933.3 -1.6 33
2019-07-24 04:00:00 27 16 Sudeste 26 Sudeste 0 933.3 -1.7 30
2019-07-24 03:00:00 28.7 8 Sudoeste 51 Sudoeste 0 934 -1.3 28
2019-07-24 02:00:00 28.5 18 Sudoeste 42 Oeste 0 934.9 -0.8 27
2019-07-24 01:00:00 26.9 11 Sudoeste 22 Sudoeste 0 935 0.6 33
2019-07-24 00:00:00 27.3 9 Oeste 32 Sudoeste 0 935.3 1.5 37
2019-07-23 23:00:00 28.8 13 Sudoeste 24 Oeste 0 935.7 4.3 31
2019-07-23 22:00:00 28.8 8 Sudoeste 41 Sudoeste 0 934.4 3.1 30
2019-07-23 21:00:00 28.6 21 Sudoeste 66 Sudoeste 0 933.8 2 33
2019-07-23 20:00:00 36.3 17 Sur 37 Sur 0 931.4 -1.1 15
2019-07-23 19:00:00 37.3 19 Sur 46 Sudoeste 0 931.3 -1.8 14
2019-07-23 18:00:00 37.2 21 Sudoeste 45 Sur 0 931.8 -2.1 15
2019-07-23 17:00:00 37.8 18 Sur 41 Sur 0 932.5 -2 15
2019-07-23 16:00:00 37.1 18 Sur 34 Sudoeste 0 933.1 -1.9 15
2019-07-23 15:00:00 36 18 Sur 34 Sudoeste 0 933.9 -1.5 16
2019-07-23 14:00:00 35.1 18 Sudeste 31 Sudoeste 0 934.5 -1 17
2019-07-23 13:00:00 34.1 9 Sur 24 Sudoeste 0 935 -1 17
2019-07-23 12:00:00 33.2 7 Sur 17 Sur 0 935.4 -0.8 18
2019-07-23 11:00:00 30.7 5 Sur 19 Sudeste 0 935.5 -1 21
2019-07-23 10:00:00 29.1 8 Este 15 Este 0 936 -0.4 22
2019-07-23 09:00:00 25.5 5 Nordeste 10 Nordeste 0 936.2 0.2 28
2019-07-23 08:00:00 23.1 4 Nordeste 10 Noroeste 0 936.5 0.6 35
2019-07-23 07:00:00 23.4 5 Oeste 15 Sudeste 0 936.4 0.1 36
2019-07-23 06:00:00 23.6 4 Sudeste 10 Sudeste 0 936 -0.2 30
2019-07-23 05:00:00 24.4 4 Sudeste 13 Sudeste 0 935.9 -0.2 30
2019-07-23 04:00:00 25.4 5 Nordeste 10 Nordeste 0 936.3 0.8 30
2019-07-23 03:00:00 26.6 5 Este 14 Nordeste 0 936.2 0.7 30
2019-07-23 02:00:00 28.1 6 Nordeste 37 Sudeste 0 936.1 0.6 28
2019-07-23 01:00:00 28.9 25 Sudeste 41 Sudeste 0 935.5 0.5 28
2019-07-23 00:00:00 29.9 26 Sudeste 45 Sudeste 0 935.5 0.7 26
2019-07-22 23:00:00 31.1 21 Sudeste 34 Sudeste 0 935.5 1.1 23
2019-07-22 22:00:00 32.5 18 Sur 37 Sur 0 935 0.4 18
2019-07-22 21:00:00 34.4 13 Sur 35 Sur 0 934.8 -0.2 14
2019-07-22 20:00:00 35.9 20 Sur 42 Sudeste 0 934.4 -1 19
2019-07-22 19:00:00 36.9 18 Sur 38 Sur 0 934.6 -1.4 17
2019-07-22 18:00:00 36.7 23 Sur 38 Sudoeste 0 935 -1.6 18
2019-07-22 17:00:00 37.7 19 Sur 40 Sudoeste 0 935.4 -1.8 15
2019-07-22 16:00:00 37.2 13 Sur 36 Sudoeste 0 936 -1.9 15
2019-07-22 15:00:00 36.2 13 Sur 27 Sur 0 936.6 -1.6 15
2019-07-22 14:00:00 35.2 4 Sudoeste 17 Sudoeste 0 937.2 -1.3 15
2019-07-22 13:00:00 33.7 9 Sur 19 Sudeste 0 937.9 -0.5 17
2019-07-22 12:00:00 32.4 10 Sur 27 Sudeste 0 938.2 -0.4 17
2019-07-22 11:00:00 30.5 9 Sudeste 17 Sudeste 0 938.5 0.2 17
2019-07-22 10:00:00 26.6 6 Norte 9 Noroeste 0 938.4 0.3 26
2019-07-22 09:00:00 24.2 4 Noroeste 6 Norte 0 938.6 0.6 37
2019-07-22 08:00:00 22.4 3 Sudeste 15 Norte 0 938.3 0.1 34
2019-07-22 07:00:00 21.9 6 Este 12 Este 0 938.1 0 32
2019-07-22 06:00:00 22.5 3 Sudeste 12 Este 0 938 -0.5 30
2019-07-22 05:00:00 23.1 10 Este 17 Este 0 938.2 0 30
2019-07-22 04:00:00 24 10 Este 16 Este 0 938.1 1.1 30
2019-07-22 03:00:00 26 4 Sur 18 Este 0 938.5 1.8 31
2019-07-22 02:00:00 27.6 8 Norte 46 Sudeste 0 938.2 2.1 33
2019-07-22 01:00:00 28.5 28 Sudeste 45 Sudeste 0 937 1.9 33
2019-07-22 00:00:00 29.7 25 Sudeste 39 Sudeste 0 936.7 2.3 33
2019-07-21 23:00:00 30.7 22 Sur 38 Sur 0 936.1 2.1 32
2019-07-21 22:00:00 32 24 Sur 39 Sur 0 935.1 1.2 29
2019-07-21 21:00:00 33.7 19 Sur 29 Sur 0 934.4 0.4 27
2019-07-21 20:00:00 34.9 15 Sur 30 Sur 0 934 -0.3 23
2019-07-21 19:00:00 36.2 13 Sur 26 Sudoeste 0 933.9 -0.9 21
2019-07-21 18:00:00 38.1 10 Sur 28 Sudoeste 0 934 -1.4 18
2019-07-21 17:00:00 37.8 13 Sudoeste 24 Sudoeste 0 934.3 -1.5 19
2019-07-21 16:00:00 37.2 12 Sudoeste 23 Sur 0 934.8 -1.6 20
2019-07-21 15:00:00 36.6 6 Sur 22 Sur 0 935.4 -1 21
2019-07-21 14:00:00 35.5 11 Sur 22 Sudoeste 0 935.8 -0.4 22
2019-07-21 13:00:00 33.8 10 Sur 21 Sur 0 936.4 0.1 24
2019-07-21 12:00:00 32.1 6 Sudeste 18 Sur 0 936.4 0.2 26
2019-07-21 11:00:00 30.4 10 Sur 19 Sur 0 936.2 0.5 29
2019-07-21 10:00:00 28.1 6 Sur 11 Norte 0 936.3 1.1 33
2019-07-21 09:00:00 25.7 4 Nordeste 9 Norte 0 936.2 1 41
2019-07-21 08:00:00 23.5 4 Nordeste 12 Este 0 935.7 0.6 48
2019-07-21 07:00:00 22.5 9 Este 12 Este 0 935.2 0.5 51
2019-07-21 06:00:00 23.4 4 Este 11 Este 0 935.2 0.5 50
2019-07-21 05:00:00 25.1 4 Nordeste 14 Nordeste 0 935.1 0.9 44
2019-07-21 04:00:00 25.6 7 Nordeste 14 Este 0 934.7 0.9 44
2019-07-21 03:00:00 26.3 5 Sudeste 43 Sur 0 934.7 1.4 42
2019-07-21 02:00:00 27.5 26 Sur 44 Sur 0 934.2 1.8 40
2019-07-21 01:00:00 28.8 27 Sur 48 Sur 0 933.8 2.1 37
2019-07-21 00:00:00 30 22 Sur 42 Sur 0 933.3 2.2 33
2019-07-20 23:00:00 29.9 4 Sur 8 Sur 0 932.4 1.5 27
2019-07-20 22:00:00 32.8 4 Sur 13 Oeste 0 931.7 0.9 24
2019-07-20 21:00:00 34.8 4 Oeste 25 Oeste 0 931.1 0.2 21
2019-07-20 20:00:00 36 8 Noroeste 22 Oeste 0 930.9 -0.1 19
2019-07-20 19:00:00 36.9 10 Oeste 31 Sudoeste 0 930.8 -0.6 19
2019-07-20 18:00:00 37.7 8 Oeste 26 Oeste 0 930.9 -0.9 18
2019-07-20 17:00:00 36.9 12 Noroeste 22 Noroeste 0 931 -1.2 19
2019-07-20 16:00:00 36.8 12 Oeste 24 Oeste 0 931.4 -1.2 20
2019-07-20 15:00:00 35.8 11 Sudoeste 22 Sur 0 931.8 -1 20
2019-07-20 14:00:00 34.6 10 Sur 22 Sur 0 932.2 -0.5 23
2019-07-20 13:00:00 32.7 7 Sudeste 26 Sur 0 932.6 -0.2 27
2019-07-20 12:00:00 31.2 12 Sudeste 24 Sudeste 0 932.8 0.3 29
2019-07-20 11:00:00 29.3 12 Sur 23 Este 0 932.7 0.6 33
2019-07-20 10:00:00 27.5 10 Sur 20 Sudeste 0 932.8 1.2 38
2019-07-20 09:00:00 25.1 3 Norte 11 Nordeste 0 932.5 1.1 46
2019-07-20 08:00:00 23.1 7 Norte 14 Este 0 932.1 0.9 50
2019-07-20 07:00:00 22.4 4 Este 15 Sudeste 0 931.6 0.7 48
2019-07-20 06:00:00 22.2 11 Este 14 Sudeste 0 931.4 0.9 45
2019-07-20 05:00:00 22.8 6 Este 14 Sudeste 0 931.2 1 40
2019-07-20 04:00:00 25.1 4 Este 16 Sur 0 930.9 0.7 34
2019-07-20 03:00:00 26.3 4 Sudoeste 39 Sur 0 930.5 0.6 31
2019-07-20 02:00:00 27.5 25 Sur 43 Sur 0 930.2 0.5 27
2019-07-20 01:00:00 28.6 27 Sur 46 Sur 0 930.2 1 22
2019-07-20 00:00:00 30.5 25 Sur 43 Sur 0 929.9 0.9 18
2019-07-19 23:00:00 31.7 22 Sur 34 Sur 0 929.7 0.8 18
2019-07-19 22:00:00 32.4 6 Sur 16 Oeste 0 929.2 0.1 24
2019-07-19 21:00:00 34.1 10 Oeste 20 Oeste 0 929 -0.6 20
2019-07-19 20:00:00 35.4 6 Oeste 28 Oeste 0 928.9 -1.1 17
2019-07-19 19:00:00 36.2 12 Oeste 26 Oeste 0 929.1 -1.5 17
2019-07-19 18:00:00 35.7 15 Sudoeste 29 Sudoeste 0 929.6 -1.4 18
2019-07-19 17:00:00 36.4 10 Oeste 28 Oeste 0 930 -1.6 19
2019-07-19 16:00:00 35.9 14 Oeste 33 Oeste 0 930.6 -1.6 19
2019-07-19 15:00:00 34.6 7 Oeste 28 Sudoeste 0 931 -1.7 23
2019-07-19 14:00:00 34.4 11 Sudoeste 24 Oeste 0 931.6 -1.4 24
2019-07-19 13:00:00 32.7 7 Oeste 16 Sudoeste 0 932.2 -1 30
2019-07-19 12:00:00 30 6 Noroeste 13 Noroeste 0 932.7 -0.4 34
2019-07-19 11:00:00 28.2 4 Norte 12 Norte 0 933 0.2 38
2019-07-19 10:00:00 25.3 5 Norte 10 Noroeste 0 933.2 0.4 43
2019-07-19 09:00:00 23.6 4 Norte 12 Nordeste 0 933.1 0.5 45
2019-07-19 08:00:00 21 7 Nordeste 12 Nordeste 0 932.8 0.2 50
2019-07-19 07:00:00 19.9 5 Nordeste 7 Este 0 932.8 0.3 51
2019-07-19 06:00:00 21.1 4 Norte 11 Nordeste 0 932.6 -0.1 45
2019-07-19 05:00:00 21.7 4 Nordeste 12 Nordeste 0 932.6 0.1 45
2019-07-19 04:00:00 22.7 5 Norte 15 Nordeste 0 932.5 0.1 43
2019-07-19 03:00:00 24.3 6 Nordeste 22 Este 0 932.7 0.6 42
2019-07-19 02:00:00 25 14 Nordeste 22 Nordeste 0 932.5 0.9 43
2019-07-19 01:00:00 25.9 8 Nordeste 20 Norte 0 932.4 1.7 43
2019-07-19 00:00:00 27.3 9 Nordeste 19 Nordeste 0 932.1 1.7 39